Time;durP1;ratioP1;P1;durP2;ratioP2;P2;SDS_P1;SDS_P2;PMS_P1;PMS_P2;Temp;Humidity;BMP_temperature;BMP_pressure;BME280_temperature;BME280_humidity;BME280_pressure;Samples;Min_cycle;Max_cycle;Signal;HPM_P1;HPM_P2
2023/07/09 00:00:48;;;;;;;4.17;3.77;;;27.60;44.90;;;;;;4994207;28;20802;-50
2023/07/09 00:03:14;;;;;;;5.50;4.27;;;27.50;45.20;;;;;;4994622;28;20839;-50
2023/07/09 00:05:40;;;;;;;4.90;4.17;;;27.50;45.40;;;;;;5000233;28;20463;-49
2023/07/09 00:08:09;;;;;;;4.60;4.20;;;27.30;45.40;;;;;;4994507;28;20234;-50
2023/07/09 00:10:35;;;;;;;5.20;3.60;;;27.30;45.50;;;;;;4993800;28;20202;-54
2023/07/09 00:13:00;;;;;;;5.20;4.20;;;27.40;45.60;;;;;;4994195;28;20434;-49
2023/07/09 00:15:27;;;;;;;5.13;4.50;;;27.50;45.30;;;;;;4993144;28;20229;-53
2023/07/09 00:17:52;;;;;;;5.50;5.00;;;27.30;45.40;;;;;;4999650;28;20193;-51
2023/07/09 00:20:18;;;;;;;5.00;4.27;;;27.10;46.00;;;;;;5008453;28;20436;-51
2023/07/09 00:22:47;;;;;;;5.73;4.10;;;27.10;46.30;;;;;;5013838;28;20228;-49
2023/07/09 00:25:16;;;;;;;4.80;4.30;;;27.00;46.40;;;;;;4999384;28;20430;-50
2023/07/09 00:27:44;;;;;;;4.70;4.33;;;27.10;46.10;;;;;;4994011;28;20544;-49
2023/07/09 00:30:21;;;;;;;5.13;4.63;;;27.20;46.00;;;;;;4993528;28;20438;-51
2023/07/09 00:32:51;;;;;;;5.37;4.87;;;27.00;46.20;;;;;;4993884;28;20441;-51
2023/07/09 00:35:18;;;;;;;6.90;4.83;;;26.90;46.50;;;;;;4992933;28;20429;-50
2023/07/09 00:37:44;;;;;;;4.77;4.37;;;26.60;47.20;;;;;;4993767;28;20422;-50
2023/07/09 00:40:21;;;;;;;7.20;5.17;;;26.70;47.20;;;;;;4993207;28;20437;-51
2023/07/09 00:42:48;;;;;;;5.10;4.30;;;26.80;46.90;;;;;;4993686;28;20488;-50
2023/07/09 00:45:27;;;;;;;4.97;4.10;;;26.50;47.30;;;;;;4990821;28;21048;-51
2023/07/09 00:48:01;;;;;;;4.23;3.90;;;26.50;47.50;;;;;;4993538;28;20520;-50
2023/07/09 00:50:46;;;;;;;5.10;3.93;;;26.60;47.30;;;;;;4993028;28;20830;-49
2023/07/09 00:53:25;;;;;;;4.40;3.70;;;26.40;47.40;;;;;;4992735;28;20999;-50
2023/07/09 00:55:59;;;;;;;3.70;3.37;;;26.50;47.40;;;;;;4992825;28;20513;-49
2023/07/09 00:58:27;;;;;;;5.33;4.00;;;26.40;46.40;;;;;;4993313;28;20422;-51
2023/07/09 01:00:58;;;;;;;5.27;4.50;;;26.70;46.60;;;;;;4992784;28;20525;-50
2023/07/09 01:03:41;;;;;;;4.23;3.67;;;26.80;46.30;;;;;;4994606;28;20488;-50
2023/07/09 01:06:07;;;;;;;3.80;3.40;;;26.70;46.40;;;;;;4995147;28;20448;-49
2023/07/09 01:08:36;;;;;;;4.20;3.80;;;26.40;47.10;;;;;;4993313;28;20434;-50
2023/07/09 01:11:01;;;;;;;5.10;3.93;;;26.20;47.80;;;;;;4991014;28;20425;-51
2023/07/09 01:13:29;;;;;;;4.73;4.33;;;26.00;48.30;;;;;;4993453;28;20495;-53
2023/07/09 01:15:55;;;;;;;7.40;4.40;;;26.10;48.20;;;;;;4992016;28;20235;-50
2023/07/09 01:18:21;;;;;;;5.40;4.00;;;26.00;48.40;;;;;;5001288;28;20796;-50
2023/07/09 01:20:47;;;;;;;4.37;3.97;;;25.70;49.20;;;;;;5010026;28;20851;-49
2023/07/09 01:23:12;;;;;;;5.17;3.90;;;25.70;49.20;;;;;;5012605;28;20770;-49
2023/07/09 01:25:44;;;;;;;4.50;3.70;;;25.70;49.40;;;;;;4995132;28;20198;-50
2023/07/09 01:28:10;;;;;;;4.87;4.07;;;25.50;49.70;;;;;;4993105;28;20187;-49
2023/07/09 01:30:38;;;;;;;4.33;3.87;;;25.30;50.40;;;;;;4992313;28;20448;-49
2023/07/09 01:33:06;;;;;;;5.23;4.07;;;25.20;50.80;;;;;;4992968;28;20191;-50
2023/07/09 01:35:34;;;;;;;5.33;3.80;;;25.20;50.50;;;;;;4991639;28;20521;-50
2023/07/09 01:38:00;;;;;;;4.20;3.50;;;25.40;50.40;;;;;;4990993;28;20441;-50
2023/07/09 01:40:27;;;;;;;5.03;3.93;;;25.40;50.20;;;;;;4992138;28;20426;-50
2023/07/09 01:42:55;;;;;;;4.83;4.13;;;25.30;50.20;;;;;;4992643;28;20481;-50
2023/07/09 01:45:21;;;;;;;4.20;3.77;;;25.50;49.90;;;;;;4991711;28;20448;-50
2023/07/09 01:47:46;;;;;;;5.00;3.63;;;25.50;49.80;;;;;;4992317;28;20426;-51
2023/07/09 01:50:12;;;;;;;5.90;3.97;;;25.60;49.60;;;;;;4991984;28;20194;-51
2023/07/09 01:52:41;;;;;;;4.27;3.90;;;25.70;49.30;;;;;;4992691;28;20193;-50
2023/07/09 01:55:10;;;;;;;4.43;4.03;;;25.80;49.10;;;;;;4991289;28;20198;-50
2023/07/09 01:57:36;;;;;;;4.30;3.60;;;25.60;49.30;;;;;;4992823;28;20430;-49
2023/07/09 02:00:10;;;;;;;5.07;3.93;;;25.60;49.40;;;;;;4991867;28;20507;-50
2023/07/09 02:02:38;;;;;;;4.20;3.50;;;25.70;49.20;;;;;;4992372;28;20501;-49
2023/07/09 02:05:05;;;;;;;4.10;3.67;;;25.90;48.80;;;;;;4996160;28;20427;-49
2023/07/09 02:07:31;;;;;;;4.50;4.13;;;26.00;48.40;;;;;;4991915;28;20472;-50
2023/07/09 02:09:58;;;;;;;5.50;3.73;;;26.10;48.30;;;;;;4991602;28;20465;-50
2023/07/09 02:12:24;;;;;;;5.40;4.00;;;26.10;48.10;;;;;;4991934;28;20590;-49
2023/07/09 02:14:50;;;;;;;5.90;3.97;;;26.20;48.00;;;;;;4991170;28;20429;-50
2023/07/09 02:17:16;;;;;;;3.93;3.50;;;26.10;48.30;;;;;;4993803;28;20230;-50
2023/07/09 02:19:41;;;;;;;4.07;3.50;;;25.70;49.40;;;;;;5006517;28;20594;-51
2023/07/09 02:22:08;;;;;;;3.90;3.50;;;25.50;49.70;;;;;;5011341;28;20512;-50
2023/07/09 02:24:34;;;;;;;4.10;3.70;;;25.50;49.70;;;;;;5002854;28;20222;-50
2023/07/09 02:27:02;;;;;;;4.23;3.67;;;25.50;49.60;;;;;;4991542;28;20810;-50
2023/07/09 02:29:29;;;;;;;6.00;3.60;;;25.70;49.30;;;;;;4991277;28;20205;-50
2023/07/09 02:31:56;;;;;;;5.70;4.83;;;25.70;49.00;;;;;;4990157;28;20460;-49
2023/07/09 02:34:25;;;;;;;8.37;4.10;;;25.90;48.70;;;;;;4990963;28;21113;-50
2023/07/09 02:36:55;;;;;;;4.13;3.73;;;26.00;48.50;;;;;;4991663;28;20451;-51
2023/07/09 02:39:22;;;;;;;4.43;3.63;;;25.90;48.50;;;;;;4991046;28;20509;-52
2023/07/09 02:41:48;;;;;;;4.30;3.90;;;25.80;48.70;;;;;;4991992;28;20465;-50
2023/07/09 02:44:14;;;;;;;4.43;4.03;;;25.90;48.60;;;;;;4990868;28;20452;-49
2023/07/09 02:46:39;;;;;;;6.00;4.27;;;25.80;48.90;;;;;;4991310;28;20952;-50
2023/07/09 02:49:06;;;;;;;6.77;4.20;;;25.60;49.30;;;;;;4991062;28;20199;-49
2023/07/09 02:51:32;;;;;;;4.00;3.60;;;25.50;49.40;;;;;;4991401;28;20779;-50
2023/07/09 02:54:00;;;;;;;5.53;3.80;;;25.40;49.90;;;;;;4991236;28;20772;-52
2023/07/09 02:56:26;;;;;;;4.43;3.97;;;25.20;50.20;;;;;;4991002;28;20967;-50
2023/07/09 02:58:52;;;;;;;4.40;4.00;;;25.20;50.20;;;;;;4989892;28;20421;-50
2023/07/09 03:01:21;;;;;;;6.90;4.20;;;25.20;50.40;;;;;;4990730;28;20198;-49
2023/07/09 03:03:47;;;;;;;4.33;3.30;;;25.20;50.30;;;;;;4995642;28;20810;-49
2023/07/09 03:06:13;;;;;;;4.53;4.13;;;25.20;50.50;;;;;;4992619;28;20437;-49
2023/07/09 03:08:38;;;;;;;7.13;3.87;;;25.00;50.80;;;;;;4991099;28;20241;-50
2023/07/09 03:11:11;;;;;;;8.80;4.13;;;24.80;51.30;;;;;;4990556;28;20194;-49
2023/07/09 03:13:37;;;;;;;4.43;3.50;;;24.80;51.10;;;;;;4991431;28;20208;-49
2023/07/09 03:16:02;;;;;;;4.00;3.60;;;24.80;51.10;;;;;;4989769;28;20465;-49
2023/07/09 03:18:28;;;;;;;4.07;3.63;;;24.90;51.10;;;;;;4999210;28;20186;-50
2023/07/09 03:20:53;;;;;;;4.83;3.70;;;25.00;51.00;;;;;;5008851;28;20194;-49
2023/07/09 03:23:19;;;;;;;4.20;3.80;;;25.00;50.80;;;;;;5010842;28;20229;-49
2023/07/09 03:25:45;;;;;;;4.70;4.30;;;25.00;50.80;;;;;;4990864;28;20195;-49
2023/07/09 03:28:11;;;;;;;4.80;4.00;;;25.00;50.80;;;;;;4991137;28;20206;-50
2023/07/09 03:30:41;;;;;;;5.27;3.97;;;25.00;50.80;;;;;;4990476;28;20191;-50
2023/07/09 03:33:07;;;;;;;5.30;4.30;;;25.10;50.60;;;;;;4991283;28;20465;-51
2023/07/09 03:35:34;;;;;;;6.13;3.80;;;25.10;50.60;;;;;;4990224;28;20453;-49
2023/07/09 03:38:00;;;;;;;4.33;3.60;;;25.20;50.40;;;;;;4990897;28;20777;-50
2023/07/09 03:40:25;;;;;;;4.93;4.43;;;25.20;50.40;;;;;;4990555;28;20450;-49
2023/07/09 03:42:51;;;;;;;6.67;4.20;;;25.00;50.80;;;;;;4991208;28;20309;-49
2023/07/09 03:45:17;;;;;;;5.60;4.40;;;24.80;51.50;;;;;;4990010;28;20199;-49
2023/07/09 03:47:42;;;;;;;5.33;3.97;;;24.50;52.20;;;;;;4990833;28;20728;-50
2023/07/09 03:50:09;;;;;;;3.67;3.37;;;24.50;52.40;;;;;;4990391;28;20197;-49
2023/07/09 03:52:35;;;;;;;12.53;4.33;;;24.40;52.60;;;;;;4989195;28;20654;-50
2023/07/09 03:55:03;;;;;;;4.20;3.80;;;24.30;52.90;;;;;;4988302;28;20865;-49
2023/07/09 03:57:30;;;;;;;6.50;4.33;;;24.30;52.70;;;;;;4990873;28;20430;-49
2023/07/09 03:59:55;;;;;;;4.13;3.73;;;24.30;52.80;;;;;;4990261;28;20430;-49
2023/07/09 04:02:21;;;;;;;4.93;4.37;;;24.30;52.80;;;;;;4990817;28;20481;-49
2023/07/09 04:04:46;;;;;;;4.23;3.77;;;24.40;52.50;;;;;;4996173;28;20190;-51
2023/07/09 04:07:12;;;;;;;4.37;3.97;;;24.40;52.50;;;;;;4990870;28;20198;-50
2023/07/09 04:09:38;;;;;;;4.20;3.80;;;24.40;52.40;;;;;;4990044;28;20233;-50
2023/07/09 04:12:04;;;;;;;5.23;4.13;;;24.30;52.30;;;;;;4990484;28;20198;-49
2023/07/09 04:14:29;;;;;;;4.13;3.53;;;24.50;52.40;;;;;;4989653;28;20289;-49
2023/07/09 04:16:55;;;;;;;6.47;5.00;;;24.40;52.40;;;;;;4990433;28;21056;-49
2023/07/09 04:19:21;;;;;;;4.40;4.00;;;24.30;52.80;;;;;;5003896;28;20276;-49
2023/07/09 04:21:46;;;;;;;4.40;4.10;;;24.20;52.80;;;;;;5009366;28;20645;-50
2023/07/09 04:24:13;;;;;;;7.17;4.27;;;24.20;53.10;;;;;;5004202;28;20230;-50
2023/07/09 04:26:39;;;;;;;5.00;4.30;;;24.00;53.60;;;;;;4990570;28;20622;-49
2023/07/09 04:29:06;;;;;;;3.90;3.43;;;24.10;53.40;;;;;;4992954;28;20505;-49
2023/07/09 04:31:31;;;;;;;4.33;3.80;;;24.30;53.20;;;;;;4993879;28;20425;-50
2023/07/09 04:33:57;;;;;;;4.43;4.03;;;24.10;53.50;;;;;;4993538;28;20426;-50
2023/07/09 04:36:23;;;;;;;6.40;4.57;;;23.80;54.50;;;;;;4993788;28;20671;-51
2023/07/09 04:38:48;;;;;;;4.80;4.27;;;23.80;54.70;;;;;;4994225;28;20265;-50
2023/07/09 04:41:14;;;;;;;5.03;4.53;;;23.80;54.70;;;;;;4993290;28;20638;-49
2023/07/09 04:43:40;;;;;;;5.23;4.30;;;23.80;55.20;;;;;;4993688;28;20225;-49
2023/07/09 04:46:05;;;;;;;4.17;3.80;;;24.00;54.70;;;;;;4992989;28;20198;-48
2023/07/09 04:48:31;;;;;;;4.10;3.70;;;24.10;53.90;;;;;;4992036;28;20290;-49
2023/07/09 04:50:56;;;;;;;4.60;3.70;;;24.40;53.60;;;;;;4993149;28;20194;-49
2023/07/09 04:53:23;;;;;;;7.13;4.00;;;24.30;53.70;;;;;;4993772;28;20190;-51
2023/07/09 04:55:49;;;;;;;4.20;3.80;;;24.20;54.20;;;;;;4992683;28;20207;-49
2023/07/09 04:58:15;;;;;;;4.30;3.90;;;24.10;54.50;;;;;;4993316;28;20573;-49
2023/07/09 05:00:42;;;;;;;6.13;4.13;;;24.30;54.20;;;;;;4992561;28;20280;-49
2023/07/09 05:03:08;;;;;;;4.90;4.43;;;24.50;53.80;;;;;;4993357;28;20685;-52
2023/07/09 05:05:34;;;;;;;5.97;3.60;;;24.50;53.60;;;;;;4998899;28;20449;-49
2023/07/09 05:07:59;;;;;;;6.43;4.20;;;24.50;53.50;;;;;;4993168;28;20797;-49
2023/07/09 05:10:25;;;;;;;6.53;3.90;;;24.50;54.20;;;;;;4992538;28;20202;-49
2023/07/09 05:12:52;;;;;;;7.90;4.63;;;24.70;53.60;;;;;;4993216;28;20187;-49
2023/07/09 05:15:19;;;;;;;4.20;3.80;;;24.70;53.30;;;;;;4990770;28;20830;-49
2023/07/09 05:17:45;;;;;;;4.67;4.30;;;24.80;53.10;;;;;;4998955;28;20552;-51
2023/07/09 05:20:12;;;;;;;6.13;4.37;;;25.10;52.80;;;;;;5007274;28;20436;-49
2023/07/09 05:22:37;;;;;;;4.33;4.00;;;25.30;52.70;;;;;;5012077;28;20484;-50
2023/07/09 05:25:03;;;;;;;6.20;4.47;;;25.00;53.20;;;;;;5000284;28;20437;-50
2023/07/09 05:27:29;;;;;;;7.43;4.60;;;24.90;53.50;;;;;;4992854;28;20243;-49
2023/07/09 05:29:55;;;;;;;4.47;4.07;;;24.90;53.80;;;;;;4992351;28;20446;-49
2023/07/09 05:32:20;;;;;;;5.20;4.70;;;25.00;53.60;;;;;;4992596;28;20568;-49
2023/07/09 05:34:46;;;;;;;4.33;3.80;;;25.20;53.40;;;;;;4991840;28;20199;-50
2023/07/09 05:37:11;;;;;;;4.77;4.20;;;25.40;53.10;;;;;;4992685;28;20249;-50
2023/07/09 05:39:37;;;;;;;5.10;4.60;;;25.60;52.50;;;;;;4991942;28;20206;-52
2023/07/09 05:42:03;;;;;;;5.10;4.40;;;25.70;52.00;;;;;;4990679;28;20819;-49
2023/07/09 05:44:28;;;;;;;5.30;4.80;;;25.80;52.10;;;;;;4991756;28;20198;-52
2023/07/09 05:46:54;;;;;;;5.03;4.53;;;25.70;52.40;;;;;;4992488;28;20209;-50
2023/07/09 05:49:19;;;;;;;4.90;4.00;;;25.90;52.50;;;;;;4991976;28;20250;-49
2023/07/09 05:51:45;;;;;;;4.57;4.17;;;26.00;51.90;;;;;;4992097;28;20645;-52
2023/07/09 05:54:11;;;;;;;5.03;4.50;;;26.30;51.40;;;;;;4991470;28;20258;-49
2023/07/09 05:56:36;;;;;;;4.87;4.37;;;26.50;50.70;;;;;;4992498;28;20203;-50
2023/07/09 05:59:02;;;;;;;6.90;3.93;;;26.60;50.50;;;;;;4992019;28;20222;-50
2023/07/09 06:01:28;;;;;;;4.73;4.33;;;26.50;50.70;;;;;;4991821;28;20206;-49
2023/07/09 06:03:54;;;;;;;5.47;4.90;;;26.50;50.70;;;;;;4997298;28;20221;-50
2023/07/09 06:06:20;;;;;;;4.80;4.40;;;26.50;51.00;;;;;;4993119;28;20654;-49
2023/07/09 06:08:46;;;;;;;4.73;4.10;;;26.60;50.90;;;;;;4990866;28;20793;-50
2023/07/09 06:11:12;;;;;;;6.10;4.97;;;26.80;50.40;;;;;;4991219;28;20478;-49
2023/07/09 06:13:38;;;;;;;6.47;4.90;;;26.90;50.40;;;;;;4992053;28;20456;-50
2023/07/09 06:16:04;;;;;;;7.60;4.27;;;26.70;50.60;;;;;;4990763;28;20230;-50
2023/07/09 06:18:30;;;;;;;6.20;5.40;;;26.80;50.50;;;;;;5000343;28;20187;-50
2023/07/09 06:20:58;;;;;;;5.13;4.63;;;27.10;50.30;;;;;;5009888;28;20959;-51
2023/07/09 06:23:24;;;;;;;5.27;4.23;;;27.30;49.80;;;;;;5011543;28;20481;-49
2023/07/09 06:25:50;;;;;;;6.10;4.67;;;27.40;49.20;;;;;;4992692;28;20432;-50
2023/07/09 06:28:18;;;;;;;9.27;5.30;;;27.60;49.00;;;;;;4991594;28;20466;-49
2023/07/09 06:30:45;;;;;;;6.10;5.03;;;27.80;48.50;;;;;;4991061;28;20430;-50
2023/07/09 06:33:12;;;;;;;4.83;4.43;;;28.00;48.20;;;;;;4991720;28;20441;-52
2023/07/09 06:35:39;;;;;;;7.33;4.37;;;28.20;47.80;;;;;;4989312;28;20430;-50
2023/07/09 06:38:05;;;;;;;4.90;4.40;;;28.40;47.50;;;;;;4991572;28;20936;-50
2023/07/09 06:40:31;;;;;;;4.50;4.10;;;28.50;47.20;;;;;;4990710;28;20426;-50
2023/07/09 06:42:57;;;;;;;5.13;4.13;;;28.50;47.60;;;;;;4991534;28;20528;-54
2023/07/09 06:45:23;;;;;;;6.57;5.00;;;28.60;47.40;;;;;;4990783;28;20206;-52
2023/07/09 06:47:49;;;;;;;5.83;4.60;;;29.00;46.80;;;;;;4991657;28;20480;-50
2023/07/09 06:50:15;;;;;;;7.37;4.80;;;29.10;46.10;;;;;;4990379;28;20777;-53
2023/07/09 06:52:41;;;;;;;6.00;5.37;;;29.20;45.80;;;;;;4991728;28;20221;-50
2023/07/09 06:55:07;;;;;;;5.53;5.03;;;29.20;45.10;;;;;;4990561;28;20898;-52
2023/07/09 06:57:33;;;;;;;7.03;4.20;;;29.30;45.30;;;;;;4991356;28;20567;-54
2023/07/09 06:59:59;;;;;;;5.20;4.70;;;29.40;45.00;;;;;;4990848;28;20433;-51
2023/07/09 07:02:24;;;;;;;5.47;4.87;;;29.70;44.30;;;;;;4989548;28;20261;-54
2023/07/09 07:04:50;;;;;;;7.03;4.30;;;29.80;44.20;;;;;;4997546;28;20198;-50
2023/07/09 07:07:15;;;;;;;5.83;5.17;;;30.10;44.00;;;;;;4991015;28;20321;-51
2023/07/09 07:09:41;;;;;;;5.80;4.30;;;30.40;42.70;;;;;;4990420;28;20277;-50
2023/07/09 07:12:07;;;;;;;5.27;4.77;;;30.80;41.90;;;;;;4991249;28;20194;-51
2023/07/09 07:14:33;;;;;;;5.00;4.50;;;31.00;41.90;;;;;;4990257;28;20430;-51
2023/07/09 07:16:58;;;;;;;11.10;4.73;;;31.00;41.50;;;;;;4990900;28;20471;-54
2023/07/09 07:19:24;;;;;;;4.60;3.73;;;31.10;41.50;;;;;;5005212;28;20194;-51
2023/07/09 07:21:49;;;;;;;5.60;5.10;;;31.40;41.30;;;;;;5010932;28;20240;-53
2023/07/09 07:24:15;;;;;;;5.30;4.70;;;31.70;40.20;;;;;;5004621;28;20206;-55
2023/07/09 07:26:40;;;;;;;8.20;4.87;;;32.00;39.90;;;;;;4991129;28;20296;-52
2023/07/09 07:29:06;;;;;;;4.87;4.47;;;32.30;39.30;;;;;;4988882;28;20191;-55
2023/07/09 07:31:32;;;;;;;5.33;4.80;;;32.50;38.80;;;;;;4991035;28;20269;-55
2023/07/09 07:33:57;;;;;;;5.50;5.00;;;32.70;38.60;;;;;;4990322;28;20198;-56
2023/07/09 07:36:23;;;;;;;5.30;4.80;;;32.90;38.60;;;;;;4990247;28;20273;-56
2023/07/09 07:38:48;;;;;;;5.20;4.70;;;33.00;37.80;;;;;;4991131;28;20229;-52
2023/07/09 07:41:14;;;;;;;4.77;4.37;;;33.20;37.40;;;;;;4990587;28;20646;-52
2023/07/09 07:43:40;;;;;;;6.80;4.93;;;33.20;36.70;;;;;;4990450;28;20775;-53
2023/07/09 07:46:07;;;;;;;5.00;4.47;;;33.20;36.90;;;;;;4990388;28;20812;-52
2023/07/09 07:48:32;;;;;;;8.33;5.30;;;33.40;36.60;;;;;;4990716;28;20209;-55
2023/07/09 07:51:01;;;;;;;4.73;4.23;;;33.40;36.20;;;;;;4990522;28;20922;-56
2023/07/09 07:53:29;;;;;;;5.07;4.60;;;33.70;36.00;;;;;;4990841;28;20190;-56
2023/07/09 07:55:56;;;;;;;6.63;5.50;;;33.80;35.80;;;;;;4988264;28;20437;-56
2023/07/09 07:58:22;;;;;;;4.67;4.27;;;33.90;35.60;;;;;;4990959;28;20436;-56
2023/07/09 08:00:47;;;;;;;7.10;5.33;;;34.10;35.40;;;;;;4990156;28;20816;-56
2023/07/09 08:03:13;;;;;;;5.73;5.20;;;34.20;34.90;;;;;;4994109;28;20227;-56
2023/07/09 08:05:39;;;;;;;4.33;3.93;;;34.20;34.20;;;;;;5001263;28;20193;-57
2023/07/09 08:08:04;;;;;;;5.67;4.83;;;34.30;34.50;;;;;;4994337;28;20430;-55
2023/07/09 08:10:30;;;;;;;4.73;4.30;;;34.50;34.70;;;;;;4993583;28;20194;-57
2023/07/09 08:12:57;;;;;;;5.00;4.60;;;34.70;34.20;;;;;;4994191;28;20195;-56
2023/07/09 08:15:27;;;;;;;5.50;4.93;;;34.90;34.30;;;;;;4993455;28;20201;-57
2023/07/09 08:17:53;;;;;;;6.00;4.93;;;35.00;33.30;;;;;;5001253;28;20440;-57
2023/07/09 08:20:18;;;;;;;4.97;4.47;;;35.20;33.40;;;;;;5008337;28;20956;-56
2023/07/09 08:22:44;;;;;;;5.10;4.70;;;35.20;33.30;;;;;;5012840;28;20232;-56
2023/07/09 08:25:09;;;;;;;5.17;4.73;;;35.30;33.00;;;;;;5000024;28;20639;-55
2023/07/09 08:27:35;;;;;;;6.50;4.97;;;35.50;32.90;;;;;;4994150;28;20653;-54
2023/07/09 08:30:01;;;;;;;6.80;4.83;;;35.60;32.60;;;;;;4993635;28;20198;-57
2023/07/09 08:32:29;;;;;;;8.13;5.10;;;35.70;32.40;;;;;;4994261;28;20249;-57
2023/07/09 08:34:54;;;;;;;5.50;4.90;;;35.90;32.10;;;;;;4993135;28;20560;-57
2023/07/09 08:37:20;;;;;;;5.27;4.57;;;35.90;31.90;;;;;;4994197;28;20429;-57
2023/07/09 08:39:45;;;;;;;10.40;4.23;;;36.00;31.70;;;;;;4992927;28;20277;-57
2023/07/09 08:42:15;;;;;;;4.50;4.10;;;35.90;31.60;;;;;;4993775;28;20370;-55
2023/07/09 08:45:18;;;;;;;4.60;4.20;;;36.00;31.40;;;;;;4992665;28;20189;-57
2023/07/09 08:48:18;;;;;;;6.70;5.00;;;36.40;30.80;;;;;;4993384;28;20433;-57
2023/07/09 08:50:48;;;;;;;5.13;4.63;;;36.40;31.00;;;;;;4991508;28;20496;-56
2023/07/09 08:53:32;;;;;;;5.30;4.80;;;36.40;31.30;;;;;;4993636;28;20492;-56
2023/07/09 08:55:58;;;;;;;7.10;4.30;;;36.60;31.30;;;;;;4992082;28;20873;-57
2023/07/09 08:58:30;;;;;;;7.00;5.10;;;36.70;30.50;;;;;;4993308;28;20425;-58
2023/07/09 09:00:57;;;;;;;4.90;4.43;;;36.70;30.30;;;;;;4992953;28;20472;-57
2023/07/09 09:03:23;;;;;;;5.63;4.47;;;36.80;30.80;;;;;;4994629;28;20488;-57
2023/07/09 09:05:49;;;;;;;4.73;4.33;;;37.10;30.80;;;;;;4998322;28;20429;-57
2023/07/09 09:08:39;;;;;;;4.77;4.30;;;37.40;30.00;;;;;;4993199;28;20194;-59
2023/07/09 09:11:21;;;;;;;6.00;4.53;;;37.70;29.80;;;;;;4992696;28;20456;-57
2023/07/09 09:13:50;;;;;;;4.67;4.27;;;38.00;29.40;;;;;;4992247;28;20440;-57
2023/07/09 09:16:39;;;;;;;5.10;4.70;;;37.40;28.80;;;;;;4992218;28;20547;-58
2023/07/09 09:19:21;;;;;;;4.50;4.10;;;37.50;29.30;;;;;;5003764;28;20420;-58
2023/07/09 09:21:52;;;;;;;5.40;4.90;;;37.80;29.60;;;;;;5012695;28;20486;-58
2023/07/09 09:24:25;;;;;;;8.90;4.60;;;38.00;28.80;;;;;;5006332;28;20548;-58
2023/07/09 09:26:52;;;;;;;5.97;4.80;;;38.20;28.80;;;;;;4992891;28;20460;-58
2023/07/09 09:29:18;;;;;;;6.33;4.73;;;38.40;28.20;;;;;;4992482;28;20429;-58
2023/07/09 09:31:48;;;;;;;4.87;4.40;;;38.50;28.00;;;;;;4992793;28;20492;-58
2023/07/09 09:34:22;;;;;;;6.40;4.80;;;38.80;28.10;;;;;;4991873;28;20272;-58
2023/07/09 09:36:49;;;;;;;8.33;4.50;;;38.90;27.50;;;;;;4992733;28;20436;-58
2023/07/09 09:39:16;;;;;;;4.90;4.50;;;39.10;27.10;;;;;;4992065;28;20421;-57
2023/07/09 09:41:45;;;;;;;4.13;3.80;;;39.40;27.10;;;;;;4992598;28;21008;-59
2023/07/09 09:44:25;;;;;;;6.43;4.60;;;39.50;26.60;;;;;;4990120;28;20433;-58
2023/07/09 09:46:51;;;;;;;4.93;4.40;;;39.40;26.40;;;;;;4992489;28;20480;-58
2023/07/09 09:49:17;;;;;;;4.90;4.40;;;39.50;26.60;;;;;;4992136;28;20905;-58
2023/07/09 09:51:45;;;;;;;5.70;4.10;;;39.80;26.70;;;;;;4992728;28;20252;-58
2023/07/09 09:54:24;;;;;;;5.53;4.57;;;40.00;26.60;;;;;;4991310;28;20209;-59
2023/07/09 09:56:50;;;;;;;5.13;4.23;;;40.00;25.80;;;;;;4992471;28;20440;-58
2023/07/09 09:59:21;;;;;;;4.83;4.43;;;39.90;25.50;;;;;;4991701;28;20808;-58
2023/07/09 10:01:56;;;;;;;6.70;4.30;;;39.90;25.40;;;;;;4992283;28;20429;-58
2023/07/09 10:04:21;;;;;;;4.40;4.00;;;40.10;25.90;;;;;;4999257;28;20431;-58
2023/07/09 10:06:51;;;;;;;4.37;3.97;;;40.20;25.20;;;;;;4992320;28;20425;-56
2023/07/09 10:09:47;;;;;;;4.27;3.73;;;40.30;23.90;;;;;;4991721;28;20218;-56
2023/07/09 10:12:21;;;;;;;3.70;3.40;;;40.50;23.50;;;;;;4990535;28;20524;-57
2023/07/09 10:14:47;;;;;;;6.00;4.30;;;40.50;23.20;;;;;;4991233;28;20494;-56
2023/07/09 10:17:30;;;;;;;5.33;4.50;;;40.40;23.20;;;;;;4993427;28;20488;-56
2023/07/09 10:19:57;;;;;;;8.27;4.50;;;40.30;23.20;;;;;;5006384;28;20204;-56
2023/07/09 10:22:33;;;;;;;4.53;3.43;;;40.40;23.50;;;;;;5011476;28;20484;-56
2023/07/09 10:25:25;;;;;;;6.10;4.63;;;40.40;22.90;;;;;;4998568;28;21022;-58
2023/07/09 10:28:39;;;;;;;4.73;4.20;;;40.50;22.40;;;;;;4991855;28;20426;-56
2023/07/09 10:31:25;;;;;;;12.17;3.93;;;40.20;23.00;;;;;;4991274;28;20445;-56
2023/07/09 10:34:29;;;;;;;4.80;4.17;;;40.60;23.00;;;;;;4991273;28;21640;-56
2023/07/09 10:37:15;;;;;;;4.90;3.77;;;40.60;23.20;;;;;;4991155;28;20444;-56
2023/07/09 10:39:50;;;;;;;5.00;4.60;;;41.00;23.20;;;;;;4989524;28;20437;-56
2023/07/09 10:42:32;;;;;;;4.00;3.70;;;41.40;22.70;;;;;;4991568;28;20886;-56
2023/07/09 10:45:03;;;;;;;4.40;4.00;;;41.50;22.00;;;;;;4990847;28;20421;-56
2023/07/09 10:47:42;;;;;;;4.20;3.80;;;41.30;21.70;;;;;;4991487;28;20221;-57
2023/07/09 10:50:17;;;;;;;4.53;3.87;;;41.10;21.80;;;;;;4991072;28;20471;-56
2023/07/09 10:52:46;;;;;;;7.90;4.23;;;40.90;22.10;;;;;;4991615;28;20775;-57
2023/07/09 10:55:17;;;;;;;7.13;4.60;;;41.00;21.90;;;;;;4990741;28;20428;-57
2023/07/09 10:57:59;;;;;;;4.23;3.83;;;41.40;21.30;;;;;;4991173;28;20563;-56
2023/07/09 11:00:34;;;;;;;4.70;4.23;;;41.60;21.10;;;;;;4991184;28;20198;-56
2023/07/09 11:03:08;;;;;;;4.37;3.80;;;42.00;21.00;;;;;;4991341;28;20233;-57
2023/07/09 11:05:34;;;;;;;4.33;3.93;;;42.10;20.70;;;;;;4995687;28;20421;-56
2023/07/09 11:08:24;;;;;;;5.00;4.30;;;42.20;20.40;;;;;;4991306;28;20737;-57
2023/07/09 11:10:55;;;;;;;5.32;4.60;;;42.50;20.60;;;;;;4990850;28;20201;-56
2023/07/09 11:13:37;;;;;;;7.15;5.38;;;42.60;20.40;;;;;;4990932;28;20213;-57
2023/07/09 11:16:05;;;;;;;4.63;4.23;;;42.40;20.20;;;;;;4990350;28;20316;-57
2023/07/09 11:18:34;;;;;;;5.53;4.30;;;42.20;20.50;;;;;;4999950;28;20190;-57
2023/07/09 11:21:14;;;;;;;4.95;4.38;;;42.30;20.70;;;;;;5009681;28;20197;-56
2023/07/09 11:23:51;;;;;;;4.63;4.32;;;42.40;20.40;;;;;;5010111;28;20224;-56
2023/07/09 11:26:31;;;;;;;4.97;4.47;;;42.50;20.70;;;;;;4990424;28;20715;-57
2023/07/09 11:29:08;;;;;;;7.75;4.63;;;42.80;19.80;;;;;;4991169;28;20284;-57
2023/07/09 11:31:35;;;;;;;5.22;4.72;;;43.10;19.80;;;;;;4991192;28;20193;-56
2023/07/09 11:34:07;;;;;;;5.07;4.57;;;43.10;19.40;;;;;;4988919;28;20193;-56
2023/07/09 11:36:34;;;;;;;5.50;4.35;;;42.70;19.80;;;;;;4991728;28;20194;-56
2023/07/09 11:39:01;;;;;;;6.97;5.38;;;42.90;19.30;;;;;;4994741;28;20675;-57
2023/07/09 11:41:41;;;;;;;8.02;4.80;;;42.70;19.10;;;;;;4994665;28;20571;-56
2023/07/09 11:44:30;;;;;;;5.07;4.68;;;43.00;19.10;;;;;;4993930;28;20233;-57
2023/07/09 11:47:22;;;;;;;5.40;4.57;;;43.30;18.90;;;;;;4994725;28;20190;-57
2023/07/09 11:50:00;;;;;;;7.10;5.43;;;43.50;19.30;;;;;;4994345;28;20229;-57
2023/07/09 11:52:28;;;;;;;5.28;4.82;;;43.60;18.70;;;;;;4994751;28;20205;-57
2023/07/09 11:54:55;;;;;;;5.20;4.53;;;43.40;18.70;;;;;;4993686;28;20197;-57
2023/07/09 11:57:21;;;;;;;6.10;5.50;;;43.10;19.20;;;;;;4994940;28;20573;-57
2023/07/09 11:59:47;;;;;;;6.60;5.22;;;43.40;19.70;;;;;;4992336;28;20588;-57
2023/07/09 12:02:21;;;;;;;5.63;5.20;;;43.30;19.00;;;;;;4994548;28;20321;-57
2023/07/09 12:04:52;;;;;;;8.07;5.40;;;42.70;19.80;;;;;;5000552;28;20196;-57
2023/07/09 12:07:20;;;;;;;4.68;4.25;;;42.50;19.60;;;;;;4994391;28;20657;-57
2023/07/09 12:09:50;;;;;;;5.32;4.82;;;42.40;20.00;;;;;;4993773;28;20281;-57
2023/07/09 12:12:25;;;;;;;5.63;5.13;;;42.90;19.20;;;;;;4994264;28;20665;-57
2023/07/09 12:14:50;;;;;;;5.50;4.45;;;43.30;19.10;;;;;;4993359;28;20201;-57
2023/07/09 12:17:16;;;;;;;5.47;4.70;;;43.20;19.10;;;;;;4995883;28;20756;-57
2023/07/09 12:19:41;;;;;;;5.13;4.63;;;43.30;19.10;;;;;;5009075;28;20201;-57
2023/07/09 12:22:18;;;;;;;7.38;5.82;;;43.50;19.00;;;;;;5013696;28;20193;-56
2023/07/09 12:24:46;;;;;;;6.47;5.70;;;43.70;18.70;;;;;;5003941;28;20201;-57
2023/07/09 12:27:25;;;;;;;5.50;4.95;;;43.80;18.40;;;;;;4992196;28;20197;-57
2023/07/09 12:29:54;;;;;;;5.93;5.32;;;44.00;18.20;;;;;;4993525;28;20208;-57
2023/07/09 12:32:22;;;;;;;7.07;6.38;;;43.60;18.40;;;;;;4993851;28;20604;-57
2023/07/09 12:34:52;;;;;;;7.38;6.75;;;43.70;18.20;;;;;;4992802;28;20234;-57
2023/07/09 12:37:20;;;;;;;10.93;5.65;;;43.60;18.30;;;;;;4994185;28;20194;-57
2023/07/09 12:39:46;;;;;;;6.32;5.47;;;43.40;18.20;;;;;;4993220;28;20837;-57
2023/07/09 12:42:32;;;;;;;7.50;5.05;;;43.50;18.40;;;;;;4992350;28;20660;-57
2023/07/09 12:44:58;;;;;;;5.70;5.13;;;43.50;18.00;;;;;;4992761;28;20210;-57
2023/07/09 12:47:25;;;;;;;7.38;5.50;;;43.60;18.80;;;;;;4993378;28;20320;-57
2023/07/09 12:49:51;;;;;;;8.63;5.70;;;43.60;19.00;;;;;;4992743;28;20197;-57
2023/07/09 12:52:22;;;;;;;8.25;5.95;;;43.60;18.80;;;;;;4993659;28;20225;-57
2023/07/09 12:54:58;;;;;;;7.45;5.38;;;43.50;18.90;;;;;;4991101;28;20245;-57